createdAt,value
2022-07-27T00:02:11.500Z,99.00
2022-07-27T00:07:14.497Z,99.70
2022-07-27T00:12:21.583Z,99.90
2022-07-27T00:17:25.881Z,99.90
2022-07-27T00:22:28.829Z,99.90
2022-07-27T00:27:31.705Z,99.90
2022-07-27T00:32:35.963Z,99.90
2022-07-27T00:37:40.051Z,99.90
2022-07-27T00:42:42.991Z,99.90
2022-07-27T00:47:51.721Z,99.90
2022-07-27T00:53:06.011Z,99.90
2022-07-27T00:58:09.829Z,99.90
2022-07-27T01:03:16.478Z,99.90
2022-07-27T01:08:19.584Z,99.90
2022-07-27T01:13:24.227Z,99.90
2022-07-27T01:18:31.357Z,99.90
2022-07-27T01:23:36.192Z,99.90
2022-07-27T01:28:43.750Z,99.90
2022-07-27T01:33:46.642Z,99.90
2022-07-27T01:38:51.175Z,99.90
2022-07-27T01:43:54.161Z,99.90
2022-07-27T01:48:57.112Z,99.90
2022-07-27T01:54:01.539Z,99.90
2022-07-27T01:59:04.534Z,99.90
2022-07-27T02:04:07.446Z,99.90
2022-07-27T02:09:15.102Z,99.90
2022-07-27T02:14:18.112Z,99.90
2022-07-27T02:19:24.128Z,99.90
2022-07-27T02:24:28.454Z,99.90
2022-07-27T02:29:31.566Z,99.90
2022-07-27T02:34:34.465Z,99.90
2022-07-27T02:39:39.272Z,99.90
2022-07-27T02:44:42.224Z,99.90
2022-07-27T02:49:45.139Z,99.90
2022-07-27T02:54:49.349Z,99.90
2022-07-27T02:59:52.261Z,99.90
2022-07-27T03:04:55.749Z,99.90
2022-07-27T03:10:00.006Z,99.90
2022-07-27T03:15:03.014Z,99.90
2022-07-27T03:20:08.777Z,99.90
2022-07-27T03:25:15.009Z,99.90
2022-07-27T03:30:18.254Z,99.90
2022-07-27T03:35:22.612Z,99.90
2022-07-27T03:40:29.259Z,99.90
2022-07-27T03:45:32.200Z,99.90
2022-07-27T03:50:35.115Z,99.90
2022-07-27T03:55:39.462Z,99.90
2022-07-27T04:00:42.758Z,99.90
2022-07-27T04:05:45.733Z,99.90
2022-07-27T04:10:50.018Z,99.90
2022-07-27T04:15:52.943Z,99.90
2022-07-27T04:20:55.872Z,99.90
2022-07-27T04:26:00.754Z,99.90
2022-07-27T04:31:03.851Z,99.90
2022-07-27T04:36:08.922Z,99.90
2022-07-27T04:41:13.245Z,99.90
2022-07-27T04:46:18.248Z,99.90
2022-07-27T04:51:21.180Z,99.90
2022-07-27T04:56:25.396Z,99.90
2022-07-27T05:01:33.147Z,99.90
2022-07-27T05:06:38.086Z,99.90
2022-07-27T05:11:51.475Z,99.90
2022-07-27T05:16:55.310Z,99.90
2022-07-27T05:21:58.282Z,99.90
2022-07-27T05:27:02.693Z,99.90
2022-07-27T05:32:06.478Z,99.90
2022-07-27T05:37:09.480Z,99.90
2022-07-27T05:42:14.115Z,99.90
2022-07-27T05:47:17.047Z,99.90
2022-07-27T05:52:20.516Z,99.90
2022-07-27T05:57:24.891Z,99.90
2022-07-27T06:02:28.259Z,99.90
2022-07-27T06:07:49.436Z,99.90
2022-07-27T06:12:54.414Z,99.90
2022-07-27T06:17:57.548Z,99.90
2022-07-27T06:23:08.063Z,99.90
2022-07-27T06:28:16.465Z,99.90
2022-07-27T06:33:28.891Z,99.90
2022-07-27T06:38:33.441Z,99.90
2022-07-27T06:43:38.059Z,99.90
2022-07-27T06:48:41.445Z,99.90
2022-07-27T06:53:44.759Z,99.90
2022-07-27T06:58:49.782Z,99.90
2022-07-27T07:03:52.796Z,99.90
2022-07-27T07:08:55.848Z,99.90
2022-07-27T07:14:00.182Z,99.90
2022-07-27T07:19:03.210Z,99.90
2022-07-27T07:24:06.878Z,99.90
2022-07-27T07:29:11.348Z,99.90
2022-07-27T07:34:14.735Z,99.90
2022-07-27T07:39:18.093Z,99.90
2022-07-27T07:44:22.346Z,99.90
2022-07-27T07:49:39.215Z,99.90
2022-07-27T07:54:42.935Z,99.90
2022-07-27T07:59:47.188Z,99.90
2022-07-27T08:04:50.145Z,99.90
2022-07-27T08:09:53.051Z,99.90
2022-07-27T08:14:57.332Z,99.90
2022-07-27T08:20:00.420Z,99.90
2022-07-27T08:25:03.425Z,99.90
2022-07-27T08:30:11.654Z,99.90
2022-07-27T08:35:17.314Z,99.90
2022-07-27T08:45:45.716Z,99.90
2022-07-27T08:50:50.185Z,99.90
2022-07-27T08:55:53.182Z,99.90
2022-07-27T09:00:57.953Z,99.90
2022-07-27T09:06:00.927Z,99.90
2022-07-27T09:11:14.315Z,99.90
2022-07-27T09:16:20.274Z,99.90
2022-07-27T09:21:25.156Z,99.90
2022-07-27T09:26:33.781Z,99.90
2022-07-27T09:31:44.670Z,99.90
2022-07-27T09:36:53.100Z,99.90
2022-07-27T09:41:58.058Z,99.90
2022-07-27T09:47:21.680Z,99.90
2022-07-27T09:52:26.088Z,99.90
2022-07-27T09:57:28.974Z,99.90
2022-07-27T10:02:33.368Z,99.90
2022-07-27T10:07:36.878Z,99.90
2022-07-27T10:12:40.057Z,99.90
2022-07-27T10:17:45.966Z,99.90
2022-07-27T10:22:56.965Z,99.90
2022-07-27T10:28:15.791Z,99.90
2022-07-27T10:33:45.497Z,99.90
2022-07-27T10:38:51.244Z,99.90
2022-07-27T10:44:28.808Z,99.90
2022-07-27T10:49:40.346Z,99.90
2022-07-27T10:54:49.584Z,99.90
2022-07-27T11:00:14.979Z,99.90
2022-07-27T11:05:53.732Z,99.90
2022-07-27T11:10:45.087Z,99.90
2022-07-27T11:15:56.018Z,99.90
2022-07-27T11:21:25.530Z,99.90
2022-07-27T11:26:41.473Z,99.90
2022-07-27T11:31:56.041Z,99.90
2022-07-27T11:37:03.234Z,99.90
2022-07-27T11:42:08.911Z,99.90
2022-07-27T11:47:18.164Z,99.90
2022-07-27T11:52:23.724Z,99.90
2022-07-27T11:57:33.144Z,99.90
2022-07-27T12:02:36.264Z,99.90
2022-07-27T12:07:48.964Z,99.90
2022-07-27T12:12:51.868Z,99.90
2022-07-27T12:17:57.356Z,99.90
2022-07-27T12:23:06.524Z,99.80
2022-07-27T12:28:12.500Z,99.20
2022-07-27T12:33:28.162Z,98.40
2022-07-27T12:38:43.196Z,97.60
2022-07-27T12:44:11.365Z,96.50
2022-07-27T12:49:17.580Z,96.10
2022-07-27T12:54:23.670Z,95.50
2022-07-27T12:59:26.890Z,94.90
2022-07-27T13:04:32.531Z,94.30
2022-07-27T13:10:03.576Z,94.60
2022-07-27T13:15:00.202Z,94.20
2022-07-27T13:20:09.801Z,93.90
2022-07-27T13:25:17.255Z,93.90
2022-07-27T13:30:23.108Z,93.30
2022-07-27T13:35:26.062Z,93.40
2022-07-27T13:40:30.519Z,93.00
2022-07-27T13:45:43.188Z,92.60
2022-07-27T13:50:46.728Z,92.20
2022-07-27T13:55:51.189Z,92.10
2022-07-27T14:00:55.508Z,91.90
2022-07-27T14:05:58.744Z,91.60
2022-07-27T14:11:03.973Z,91.60
2022-07-27T14:16:08.227Z,91.40
2022-07-27T14:21:11.336Z,91.20
2022-07-27T14:26:15.928Z,90.80
2022-07-27T14:31:18.919Z,90.40
2022-07-27T14:36:21.874Z,90.00
2022-07-27T14:41:26.495Z,89.00
2022-07-27T14:46:34.143Z,89.00
2022-07-27T14:51:37.507Z,88.20
2022-07-27T14:56:41.831Z,87.60
2022-07-27T15:01:46.357Z,86.90
2022-07-27T15:06:49.665Z,86.00
2022-07-27T15:11:54.428Z,85.40
2022-07-27T15:16:58.139Z,85.00
2022-07-27T15:22:18.187Z,84.60
2022-07-27T15:27:22.672Z,84.50
2022-07-27T15:32:25.742Z,83.80
2022-07-27T15:37:29.746Z,83.20
2022-07-27T15:42:39.945Z,82.50
2022-07-27T15:47:44.083Z,81.80
2022-07-27T15:52:59.073Z,81.30
2022-07-27T15:58:03.713Z,80.90
2022-07-27T16:03:07.076Z,80.90
2022-07-27T16:08:11.481Z,80.10
2022-07-27T16:13:16.695Z,79.90
2022-07-27T16:18:21.841Z,80.00
2022-07-27T16:23:25.724Z,79.10
2022-07-27T16:28:30.764Z,78.70
2022-07-27T16:33:45.329Z,78.40
2022-07-27T16:38:55.518Z,77.20
2022-07-27T16:44:01.222Z,76.80
2022-07-27T16:49:04.320Z,76.80
2022-07-27T16:54:08.382Z,76.60
2022-07-27T16:59:13.171Z,76.60
2022-07-27T17:04:17.458Z,76.00
2022-07-27T17:09:20.764Z,76.00
2022-07-27T17:14:27.587Z,75.90
2022-07-27T17:19:30.934Z,75.50
2022-07-27T17:24:38.067Z,74.90
2022-07-27T17:29:46.758Z,74.70
2022-07-27T17:34:50.110Z,74.50
2022-07-27T17:39:53.406Z,73.70
2022-07-27T17:45:16.141Z,73.30
2022-07-27T17:50:21.255Z,73.00
2022-07-27T17:55:24.472Z,72.90
2022-07-27T18:00:29.224Z,72.90
2022-07-27T18:11:50.540Z,72.00
2022-07-27T18:16:54.860Z,71.50
2022-07-27T18:21:57.889Z,70.90
2022-07-27T18:27:20.675Z,70.40
2022-07-27T18:32:25.523Z,70.00
2022-07-27T18:37:28.534Z,69.70
2022-07-27T18:42:39.154Z,69.50
2022-07-27T18:47:49.325Z,69.50
2022-07-27T18:53:01.034Z,69.50
2022-07-27T18:58:04.203Z,69.60
2022-07-27T19:03:09.365Z,69.30
2022-07-27T19:08:14.511Z,69.10
2022-07-27T19:13:17.857Z,69.30
2022-07-27T19:18:23.673Z,69.20
2022-07-27T19:23:26.762Z,69.20
2022-07-27T19:28:29.874Z,69.20
2022-07-27T19:33:34.402Z,69.30
2022-07-27T19:38:41.623Z,69.40
2022-07-27T19:44:02.129Z,69.70
2022-07-27T19:49:06.591Z,70.10
2022-07-27T19:54:11.867Z,70.40
2022-07-27T19:59:16.038Z,70.80
2022-07-27T20:04:20.781Z,71.20
2022-07-27T20:09:27.201Z,71.70
2022-07-27T20:14:30.223Z,72.20
2022-07-27T20:19:34.796Z,72.50
2022-07-27T20:24:37.747Z,73.20
2022-07-27T20:29:40.697Z,73.50
2022-07-27T20:34:45.353Z,73.70
2022-07-27T20:39:49.526Z,74.30
2022-07-27T20:44:52.624Z,74.60
2022-07-27T20:49:57.101Z,74.90
2022-07-27T20:55:00.158Z,75.40
2022-07-27T21:00:03.565Z,76.00
2022-07-27T21:05:09.592Z,76.60
2022-07-27T21:10:12.722Z,77.20
2022-07-27T21:15:16.097Z,77.60
2022-07-27T21:20:20.708Z,78.10
2022-07-27T21:25:23.892Z,78.80
2022-07-27T21:30:28.101Z,79.50
2022-07-27T21:35:33.609Z,80.40
2022-07-27T21:40:36.654Z,81.90
2022-07-27T21:45:39.675Z,82.90
2022-07-27T21:50:52.487Z,84.10
2022-07-27T21:55:55.971Z,85.00
2022-07-27T22:00:59.121Z,86.00
2022-07-27T22:06:25.313Z,86.90
2022-07-27T22:11:28.422Z,87.80
2022-07-27T22:16:31.663Z,88.50
2022-07-27T22:21:36.134Z,89.40
2022-07-27T22:26:39.329Z,89.60
2022-07-27T22:31:42.724Z,90.00
2022-07-27T22:36:47.094Z,90.20
2022-07-27T22:41:50.041Z,90.20
2022-07-27T22:46:53.484Z,90.20
2022-07-27T22:51:57.965Z,90.30
2022-07-27T22:57:01.208Z,90.40
2022-07-27T23:02:04.564Z,90.60
2022-07-27T23:07:09.023Z,90.80
2022-07-27T23:12:12.039Z,90.90
2022-07-27T23:17:17.401Z,91.20
2022-07-27T23:22:27.740Z,91.20
2022-07-27T23:27:30.810Z,90.90
2022-07-27T23:32:34.251Z,90.80
2022-07-27T23:37:38.585Z,90.90
2022-07-27T23:42:41.595Z,90.70
2022-07-27T23:47:45.253Z,90.50
2022-07-27T23:52:51.837Z,90.50
2022-07-27T23:57:54.804Z,90.50
